Time;durP1;ratioP1;P1;durP2;ratioP2;P2;SDS_P1;SDS_P2;PMS_P1;PMS_P2;Temp;Humidity;BMP_temperature;BMP_pressure;BME280_temperature;BME280_humidity;BME280_pressure;Samples;Min_cycle;Max_cycle;Signal;HPM_P1;HPM_P2
2022/09/27 00:02:17;;;;;;;;;;;;;;;;;;10419096;28;19929;-61
2022/09/27 00:07:19;;;;;;;;;;;;;;;;;;10415021;28;20016;-61
2022/09/27 00:12:21;;;;;;;;;;;;;;;;;;10418178;28;19925;-61
2022/09/27 00:17:23;;;;;;;;;;;;;;;;;;10418428;28;19925;-61
2022/09/27 00:22:25;;;;;;;;;;;;;;;;;;10417651;28;19983;-61
2022/09/27 00:27:27;;;;;;;;;;;;;;;;;;10415275;28;20296;-61
2022/09/27 00:32:29;;;;;;;;;;;;;;;;;;10417890;28;19925;-61
2022/09/27 00:37:31;;;;;;;;;;;;;;;;;;10414913;28;20289;-61
2022/09/27 00:42:35;;;;;;;;;;;;;;;;;;10416911;28;19925;-61
2022/09/27 00:47:37;;;;;;;;;;;;;;;;;;10411791;28;19933;-61
2022/09/27 00:52:40;;;;;;;;;;;;;;;;;;10417194;28;19929;-62
2022/09/27 00:57:42;;;;;;;;;;;;;;;;;;10416963;28;19925;-61
2022/09/27 01:02:44;;;;;;;;;;;;;;;;;;10414476;28;19948;-62
2022/09/27 01:07:46;;;;;;;;;;;;;;;;;;10395244;28;20399;-61
2022/09/27 01:12:48;;;;;;;;;;;;;;;;;;10416614;28;19925;-62
2022/09/27 01:17:51;;;;;;;;;;;;;;;;;;10416374;28;19925;-62
2022/09/27 01:22:53;;;;;;;;;;;;;;;;;;10414111;28;20384;-61
2022/09/27 01:27:55;;;;;;;;;;;;;;;;;;10411970;28;19998;-61
2022/09/27 01:32:57;;;;;;;;;;;;;;;;;;10413808;28;19925;-61
2022/09/27 01:37:59;;;;;;;;;;;;;;;;;;10415935;28;19975;-62
2022/09/27 01:43:01;;;;;;;;;;;;;;;;;;10413737;28;19925;-61
2022/09/27 01:48:03;;;;;;;;;;;;;;;;;;10413978;28;20272;-61
2022/09/27 01:53:05;;;;;;;;;;;;;;;;;;10415645;28;19933;-61
2022/09/27 01:58:07;;;;;;;;;;;;;;;;;;10414911;28;20376;-61
2022/09/27 02:03:10;;;;;;;;;;;;;;;;;;10414736;28;19971;-62
2022/09/27 02:08:12;;;;;;;;;;;;;;;;;;10413183;28;19925;-61
2022/09/27 02:13:14;;;;;;;;;;;;;;;;;;10414006;28;19929;-62
2022/09/27 02:18:16;;;;;;;;;;;;;;;;;;10414514;28;19929;-62
2022/09/27 02:23:18;;;;;;;;;;;;;;;;;;10413371;28;19972;-62
2022/09/27 02:28:20;;;;;;;;;;;;;;;;;;10411266;28;20427;-62
2022/09/27 02:33:22;;;;;;;;;;;;;;;;;;10413022;28;19979;-62
2022/09/27 02:38:24;;;;;;;;;;;;;;;;;;10414788;28;19929;-62
2022/09/27 02:43:26;;;;;;;;;;;;;;;;;;10414983;28;20269;-62
2022/09/27 02:48:28;;;;;;;;;;;;;;;;;;10419364;28;19925;-61
2022/09/27 02:53:30;;;;;;;;;;;;;;;;;;10422291;28;19975;-61
2022/09/27 02:58:32;;;;;;;;;;;;;;;;;;10419462;28;20372;-62
2022/09/27 03:03:34;;;;;;;;;;;;;;;;;;10417943;28;19928;-61
2022/09/27 03:08:36;;;;;;;;;;;;;;;;;;10420509;28;19976;-62
2022/09/27 03:13:38;;;;;;;;;;;;;;;;;;10420407;28;20380;-61
2022/09/27 03:19:00;;;;;;;;;;;;;;;;;;10419397;28;20020;-62
2022/09/27 03:24:02;;;;;;;;;;;;;;;;;;10419244;28;19929;-62
2022/09/27 03:29:04;;;;;;;;;;;;;;;;;;10416761;28;19925;-61
2022/09/27 03:34:06;;;;;;;;;;;;;;;;;;10420284;28;19933;-61
2022/09/27 03:39:08;;;;;;;;;;;;;;;;;;10418878;28;19925;-61
2022/09/27 03:44:10;;;;;;;;;;;;;;;;;;10419779;28;20384;-62
2022/09/27 03:49:12;;;;;;;;;;;;;;;;;;10416900;28;19925;-61
2022/09/27 03:54:14;;;;;;;;;;;;;;;;;;10418517;28;19974;-61
2022/09/27 03:59:16;;;;;;;;;;;;;;;;;;10400765;28;19929;-61
2022/09/27 04:04:18;;;;;;;;;;;;;;;;;;10463589;22;19924;-58
2022/09/27 04:09:20;;;;;;;;;;;;;;;;;;10457360;28;19929;-58
2022/09/27 04:14:24;;;;;;;;;;;;;;;;;;10458660;28;21548;-58
2022/09/27 04:19:26;;;;;;;;;;;;;;;;;;10458061;28;19928;-58
2022/09/27 04:24:28;;;;;;;;;;;;;;;;;;10459848;28;19974;-58
2022/09/27 04:29:31;;;;;;;;;;;;;;;;;;10455016;28;20333;-58
2022/09/27 04:39:53;;;;;;;;;;;;;;;;;;10417619;28;19925;-57
2022/09/27 04:44:55;;;;;;;;;;;;;;;;;;10417028;28;19925;-58
2022/09/27 04:49:57;;;;;;;;;;;;;;;;;;10448190;28;20303;-58
2022/09/27 04:54:59;;;;;;;;;;;;;;;;;;10457654;28;19978;-58
2022/09/27 05:00:02;;;;;;;;;;;;;;;;;;10457568;28;20311;-58
2022/09/27 05:05:05;;;;;;;;;;;;;;;;;;10457300;28;19924;-58
2022/09/27 05:10:07;;;;;;;;;;;;;;;;;;10451915;28;19974;-58
2022/09/27 05:15:09;;;;;;;;;;;;;;;;;;10457757;28;19932;-58
2022/09/27 05:20:12;;;;;;;;;;;;;;;;;;10456960;28;19925;-58
2022/09/27 05:25:15;;;;;;;;;;;;;;;;;;10452922;28;19947;-58
2022/09/27 05:30:17;;;;;;;;;;;;;;;;;;10454518;28;19932;-58
2022/09/27 05:35:19;;;;;;;;;;;;;;;;;;10457329;28;19970;-58
2022/09/27 05:40:24;;;;;;;;;;;;;;;;;;10457116;28;19974;-58
2022/09/27 05:45:43;;;;;;;;;;;;;;;;;;10453554;28;20335;-58
2022/09/27 05:50:45;;;;;;;;;;;;;;;;;;10454825;28;20008;-58
2022/09/27 05:55:48;;;;;;;;;;;;;;;;;;10456188;28;19975;-58
2022/09/27 06:00:50;;;;;;;;;;;;;;;;;;10456452;28;19971;-58
2022/09/27 06:05:52;;;;;;;;;;;;;;;;;;10456254;28;19971;-58
2022/09/27 06:10:54;;;;;;;;;;;;;;;;;;10453913;28;20372;-58
2022/09/27 06:15:58;;;;;;;;;;;;;;;;;;10455911;28;20462;-58
2022/09/27 06:21:00;;;;;;;;;;;;;;;;;;10461565;28;20441;-58
2022/09/27 06:26:02;;;;;;;;;;;;;;;;;;10461177;28;19995;-58
2022/09/27 06:31:04;;;;;;;;;;;;;;;;;;10462628;28;20371;-58
2022/09/27 06:36:06;;;;;;;;;;;;;;;;;;10463188;28;20385;-58
2022/09/27 06:41:08;;;;;;;;;;;;;;;;;;10460888;28;20391;-58
2022/09/27 06:46:10;;;;;;;;;;;;;;;;;;10461201;28;19925;-58
2022/09/27 06:51:12;;;;;;;;;;;;;;;;;;10462601;28;19939;-58
2022/09/27 06:56:14;;;;;;;;;;;;;;;;;;10461441;28;19924;-58
2022/09/27 07:01:17;;;;;;;;;;;;;;;;;;10460849;28;20445;-58
2022/09/27 07:06:19;;;;;;;;;;;;;;;;;;10461868;28;20079;-58
2022/09/27 07:11:22;;;;;;;;;;;;;;;;;;10462483;28;19979;-58
2022/09/27 07:16:24;;;;;;;;;;;;;;;;;;10462311;28;19924;-58
2022/09/27 07:21:26;;;;;;;;;;;;;;;;;;10460535;28;19932;-58
2022/09/27 07:26:28;;;;;;;;;;;;;;;;;;10457281;28;20426;-58
2022/09/27 07:31:31;;;;;;;;;;;;;;;;;;10460753;28;19955;-58
2022/09/27 07:36:33;;;;;;;;;;;;;;;;;;10464870;28;19925;-59
2022/09/27 07:41:35;;;;;;;;;;;;;;;;;;10459370;28;19924;-58
2022/09/27 07:46:37;;;;;;;;;;;;;;;;;;10422438;28;19927;-58
2022/09/27 07:51:39;;;;;;;;;;;;;;;;;;10419034;28;20360;-58
2022/09/27 07:56:41;;;;;;;;;;;;;;;;;;10419477;28;19926;-58
2022/09/27 08:01:45;;;;;;;;;;;;;;;;;;10418718;28;19925;-58
2022/09/27 08:06:47;;;;;;;;;;;;;;;;;;10419058;28;20073;-58
2022/09/27 08:11:49;;;;;;;;;;;;;;;;;;10418218;28;19925;-58
2022/09/27 08:16:51;;;;;;;;;;;;;;;;;;10418565;28;19932;-58
2022/09/27 08:21:56;;;;;;;;;;;;;;;;;;10418359;28;20015;-58
2022/09/27 08:26:59;;;;;;;;;;;;;;;;;;10418101;28;20028;-58
2022/09/27 08:32:01;;;;;;;;;;;;;;;;;;10417474;28;20435;-58
2022/09/27 08:37:04;;;;;;;;;;;;;;;;;;10417874;28;19925;-58
2022/09/27 08:42:06;;;;;;;;;;;;;;;;;;10416548;28;20323;-58
2022/09/27 08:47:08;;;;;;;;;;;;;;;;;;10417438;28;19928;-58
2022/09/27 08:52:10;;;;;;;;;;;;;;;;;;10416632;28;19925;-58
2022/09/27 08:57:12;;;;;;;;;;;;;;;;;;10416517;28;20386;-58
2022/09/27 09:02:14;;;;;;;;;;;;;;;;;;10416188;28;20403;-59
2022/09/27 09:07:16;;;;;;;;;;;;;;;;;;10416188;28;20383;-58
2022/09/27 09:17:39;;;;;;;;;;;;;;;;;;10416521;28;19976;-58
2022/09/27 09:22:41;;;;;;;;;;;;;;;;;;10415699;28;19933;-58
2022/09/27 09:27:43;;;;;;;;;;;;;;;;;;10415677;28;19925;-59
2022/09/27 09:32:45;;;;;;;;;;;;;;;;;;10416299;28;19925;-58
2022/09/27 09:37:47;;;;;;;;;;;;;;;;;;10415718;28;19951;-58
2022/09/27 09:42:49;;;;;;;;;;;;;;;;;;10415963;28;19925;-58
2022/09/27 09:47:51;;;;;;;;;;;;;;;;;;10415293;28;20427;-58
2022/09/27 09:52:53;;;;;;;;;;;;;;;;;;10418028;28;19925;-57
2022/09/27 09:57:55;;;;;;;;;;;;;;;;;;10424073;28;20068;-58
2022/09/27 10:02:58;;;;;;;;;;;;;;;;;;10423145;28;19929;-58
2022/09/27 10:08:00;;;;;;;;;;;;;;;;;;10423090;28;19952;-58
2022/09/27 10:13:02;;;;;;;;;;;;;;;;;;10423519;28;19925;-58
2022/09/27 10:18:04;;;;;;;;;;;;;;;;;;10444848;28;19932;-58
2022/09/27 10:23:06;;;;;;;;;;;;;;;;;;10462409;28;19971;-58
2022/09/27 10:28:08;;;;;;;;;;;;;;;;;;10464252;28;19975;-58
2022/09/27 10:33:10;;;;;;;;;;;;;;;;;;10462445;28;19925;-58
2022/09/27 10:38:13;;;;;;;;;;;;;;;;;;10460204;28;19925;-58
2022/09/27 10:43:15;;;;;;;;;;;;;;;;;;10461525;28;19925;-58
2022/09/27 10:48:17;;;;;;;;;;;;;;;;;;10459581;28;19924;-58
2022/09/27 10:53:19;;;;;;;;;;;;;;;;;;10463229;28;19928;-58
2022/09/27 10:58:21;;;;;;;;;;;;;;;;;;10462480;28;20042;-58
2022/09/27 11:03:25;;;;;;;;;;;;;;;;;;10460641;28;19925;-58
2022/09/27 11:08:27;;;;;;;;;;;;;;;;;;10459065;28;20437;-58
2022/09/27 11:13:31;;;;;;;;;;;;;;;;;;10462483;28;19925;-58
2022/09/27 11:18:33;;;;;;;;;;;;;;;;;;10461582;28;19929;-58
2022/09/27 11:23:36;;;;;;;;;;;;;;;;;;10462084;28;19979;-58
2022/09/27 11:28:38;;;;;;;;;;;;;;;;;;10461285;28;20325;-58
2022/09/27 11:33:40;;;;;;;;;;;;;;;;;;10461727;28;19978;-58
2022/09/27 11:38:42;;;;;;;;;;;;;;;;;;10460804;28;20426;-58
2022/09/27 11:44:03;;;;;;;;;;;;;;;;;;10460686;28;20429;-58
2022/09/27 11:49:06;;;;;;;;;;;;;;;;;;10461109;28;19970;-58
2022/09/27 11:54:08;;;;;;;;;;;;;;;;;;10460893;28;19929;-58
2022/09/27 11:59:10;;;;;;;;;;;;;;;;;;10459951;28;19925;-58
2022/09/27 12:04:12;;;;;;;;;;;;;;;;;;10460363;28;20383;-58
2022/09/27 12:09:14;;;;;;;;;;;;;;;;;;10460289;28;19951;-58
2022/09/27 12:14:17;;;;;;;;;;;;;;;;;;10459639;28;19925;-58
2022/09/27 12:19:19;;;;;;;;;;;;;;;;;;10459507;28;19924;-58
2022/09/27 12:24:21;;;;;;;;;;;;;;;;;;10459065;28;20303;-58
2022/09/27 12:29:23;;;;;;;;;;;;;;;;;;10459509;28;19925;-58
2022/09/27 12:34:25;;;;;;;;;;;;;;;;;;10459302;28;19951;-58
2022/09/27 12:39:29;;;;;;;;;;;;;;;;;;10458398;28;20364;-58
2022/09/27 12:44:31;;;;;;;;;;;;;;;;;;10458924;28;19978;-58
2022/09/27 12:49:33;;;;;;;;;;;;;;;;;;10458665;28;19925;-58
2022/09/27 12:54:35;;;;;;;;;;;;;;;;;;10458534;28;19925;-58
2022/09/27 12:59:37;;;;;;;;;;;;;;;;;;10458287;28;19924;-58
2022/09/27 13:04:39;;;;;;;;;;;;;;;;;;10457513;28;19970;-58
2022/09/27 13:09:41;;;;;;;;;;;;;;;;;;10457390;28;20428;-58
2022/09/27 13:14:43;;;;;;;;;;;;;;;;;;10457869;28;19924;-58
2022/09/27 13:19:45;;;;;;;;;;;;;;;;;;10457681;28;19925;-58
2022/09/27 13:24:47;;;;;;;;;;;;;;;;;;10457597;28;20330;-58
2022/09/27 13:29:49;;;;;;;;;;;;;;;;;;10457314;28;19925;-58
2022/09/27 13:34:52;;;;;;;;;;;;;;;;;;10457253;28;20295;-58
2022/09/27 13:39:54;;;;;;;;;;;;;;;;;;10457191;28;19971;-58
2022/09/27 13:44:56;;;;;;;;;;;;;;;;;;10456600;28;20281;-59
2022/09/27 13:49:59;;;;;;;;;;;;;;;;;;10457086;28;19928;-58
2022/09/27 13:55:01;;;;;;;;;;;;;;;;;;10457229;28;19924;-58
2022/09/27 14:00:05;;;;;;;;;;;;;;;;;;10456865;28;19978;-58
2022/09/27 14:05:07;;;;;;;;;;;;;;;;;;10456127;28;19928;-58
2022/09/27 14:10:09;;;;;;;;;;;;;;;;;;10456696;28;19928;-58
2022/09/27 14:15:12;;;;;;;;;;;;;;;;;;10456623;28;19931;-58
2022/09/27 14:20:14;;;;;;;;;;;;;;;;;;10461707;28;20383;-58
2022/09/27 14:25:16;;;;;;;;;;;;;;;;;;10468644;28;19929;-58
2022/09/27 14:30:18;;;;;;;;;;;;;;;;;;10456208;28;19937;-58
2022/09/27 14:40:42;;;;;;;;;;;;;;;;;;10460736;28;19951;-58
2022/09/27 14:45:45;;;;;;;;;;;;;;;;;;10462992;28;19931;-58
2022/09/27 14:50:47;;;;;;;;;;;;;;;;;;10463384;28;19925;-58
2022/09/27 14:55:52;;;;;;;;;;;;;;;;;;10462564;28;19932;-59
2022/09/27 15:00:54;;;;;;;;;;;;;;;;;;10462667;28;19925;-59
2022/09/27 15:05:58;;;;;;;;;;;;;;;;;;10462854;28;19982;-58
2022/09/27 15:11:00;;;;;;;;;;;;;;;;;;10462635;28;19928;-58
2022/09/27 15:16:02;;;;;;;;;;;;;;;;;;10462670;28;19925;-59
2022/09/27 15:21:04;;;;;;;;;;;;;;;;;;10462228;28;19925;-58
2022/09/27 15:26:06;;;;;;;;;;;;;;;;;;10462065;28;19925;-58
2022/09/27 15:31:08;;;;;;;;;;;;;;;;;;10461815;28;19970;-58
2022/09/27 15:36:10;;;;;;;;;;;;;;;;;;10461921;28;19925;-59
2022/09/27 15:41:13;;;;;;;;;;;;;;;;;;10459335;28;19924;-59
2022/09/27 15:46:15;;;;;;;;;;;;;;;;;;10460350;28;19924;-59
2022/09/27 15:51:18;;;;;;;;;;;;;;;;;;10459185;28;20008;-59
2022/09/27 15:56:20;;;;;;;;;;;;;;;;;;10460846;28;19931;-63
2022/09/27 16:01:23;;;;;;;;;;;;;;;;;;10459166;28;19960;-64
2022/09/27 16:06:25;;;;;;;;;;;;;;;;;;10458753;28;19924;-59
2022/09/27 16:11:27;;;;;;;;;;;;;;;;;;10459607;28;20269;-59
2022/09/27 16:16:29;;;;;;;;;;;;;;;;;;10461072;22;19971;-59
2022/09/27 16:21:31;;;;;;;;;;;;;;;;;;10417526;28;19979;-59
2022/09/27 16:26:33;;;;;;;;;;;;;;;;;;10418487;28;19971;-59
2022/09/27 16:31:35;;;;;;;;;;;;;;;;;;10417811;28;19951;-58
2022/09/27 16:36:37;;;;;;;;;;;;;;;;;;10417158;28;19925;-59
2022/09/27 16:41:40;;;;;;;;;;;;;;;;;;10416100;28;19925;-58
2022/09/27 16:46:42;;;;;;;;;;;;;;;;;;10415234;28;19925;-59
2022/09/27 16:51:59;;;;;;;;;;;;;;;;;;10416529;28;19929;-59
2022/09/27 16:57:01;;;;;;;;;;;;;;;;;;10415281;28;19935;-58
2022/09/27 17:02:04;;;;;;;;;;;;;;;;;;10414944;28;19929;-59
2022/09/27 17:07:06;;;;;;;;;;;;;;;;;;10416393;28;20338;-59
2022/09/27 17:12:08;;;;;;;;;;;;;;;;;;10415937;28;19929;-58
2022/09/27 17:17:12;;;;;;;;;;;;;;;;;;10423623;28;19932;-59
2022/09/27 17:22:14;;;;;;;;;;;;;;;;;;10419823;28;19979;-59
2022/09/27 17:27:17;;;;;;;;;;;;;;;;;;10415298;28;19979;-58
2022/09/27 17:32:23;;;;;;;;;;;;;;;;;;10413339;28;20295;-59
2022/09/27 17:37:25;;;;;;;;;;;;;;;;;;10419967;28;19929;-58
2022/09/27 17:42:27;;;;;;;;;;;;;;;;;;10412526;28;20403;-59
2022/09/27 17:52:50;;;;;;;;;;;;;;;;;;10419002;28;19941;-58
2022/09/27 17:57:52;;;;;;;;;;;;;;;;;;10412771;28;19925;-59
2022/09/27 18:02:54;;;;;;;;;;;;;;;;;;10414638;28;20343;-58
2022/09/27 18:07:57;;;;;;;;;;;;;;;;;;10414995;28;19947;-59
2022/09/27 18:12:59;;;;;;;;;;;;;;;;;;10414463;28;20379;-59
2022/09/27 18:18:01;;;;;;;;;;;;;;;;;;10421646;28;19979;-59
2022/09/27 18:23:03;;;;;;;;;;;;;;;;;;10421494;28;20434;-59
2022/09/27 18:28:05;;;;;;;;;;;;;;;;;;10420854;28;19925;-59
2022/09/27 18:33:07;;;;;;;;;;;;;;;;;;10441389;28;20335;-60
2022/09/27 18:38:09;;;;;;;;;;;;;;;;;;10420708;28;20380;-60
2022/09/27 18:43:12;;;;;;;;;;;;;;;;;;10422295;28;19971;-59
2022/09/27 18:48:14;;;;;;;;;;;;;;;;;;10421655;28;20419;-59
2022/09/27 18:53:16;;;;;;;;;;;;;;;;;;10421029;28;19944;-59
2022/09/27 18:58:18;;;;;;;;;;;;;;;;;;10420268;28;20323;-59
2022/09/27 19:03:20;;;;;;;;;;;;;;;;;;10421638;28;19925;-60
2022/09/27 19:08:22;;;;;;;;;;;;;;;;;;10420585;28;20340;-59
2022/09/27 19:13:24;;;;;;;;;;;;;;;;;;10420211;28;19982;-59
2022/09/27 19:18:30;;;;;;;;;;;;;;;;;;10417754;28;19925;-59
2022/09/27 19:23:32;;;;;;;;;;;;;;;;;;10416872;28;19925;-59
2022/09/27 19:28:34;;;;;;;;;;;;;;;;;;10418858;28;20304;-59
2022/09/27 19:33:37;;;;;;;;;;;;;;;;;;10419880;28;19925;-59
2022/09/27 19:38:39;;;;;;;;;;;;;;;;;;10416960;28;20423;-59
2022/09/27 19:43:42;;;;;;;;;;;;;;;;;;10420102;28;19929;-59
2022/09/27 19:48:44;;;;;;;;;;;;;;;;;;10417977;28;19929;-59
2022/09/27 19:53:46;;;;;;;;;;;;;;;;;;10419923;28;19979;-60
2022/09/27 19:58:48;;;;;;;;;;;;;;;;;;10417705;28;19929;-60
2022/09/27 20:03:50;;;;;;;;;;;;;;;;;;10417694;28;19925;-60
2022/09/27 20:08:53;;;;;;;;;;;;;;;;;;10419288;28;19925;-59
2022/09/27 20:13:55;;;;;;;;;;;;;;;;;;10419025;28;19991;-59
2022/09/27 20:18:57;;;;;;;;;;;;;;;;;;10397660;28;19925;-59
2022/09/27 20:23:59;;;;;;;;;;;;;;;;;;10418506;28;19925;-59
2022/09/27 20:29:01;;;;;;;;;;;;;;;;;;10416953;28;20331;-59
2022/09/27 20:34:04;;;;;;;;;;;;;;;;;;10417602;28;20398;-59
2022/09/27 20:39:06;;;;;;;;;;;;;;;;;;10415272;28;19925;-59
2022/09/27 20:44:08;;;;;;;;;;;;;;;;;;10417691;28;19925;-59
2022/09/27 20:49:11;;;;;;;;;;;;;;;;;;10413682;28;19951;-59
2022/09/27 20:54:13;;;;;;;;;;;;;;;;;;10416137;28;19925;-59
2022/09/27 20:59:16;;;;;;;;;;;;;;;;;;10413757;28;19925;-60
2022/09/27 21:04:18;;;;;;;;;;;;;;;;;;10415488;28;19979;-59
2022/09/27 21:09:20;;;;;;;;;;;;;;;;;;10415302;28;20312;-59
2022/09/27 21:14:22;;;;;;;;;;;;;;;;;;10416179;28;20331;-59
2022/09/27 21:19:24;;;;;;;;;;;;;;;;;;10411758;28;19991;-59
2022/09/27 21:24:26;;;;;;;;;;;;;;;;;;10415757;28;20266;-59
2022/09/27 21:29:28;;;;;;;;;;;;;;;;;;10415560;28;19925;-59
2022/09/27 21:34:30;;;;;;;;;;;;;;;;;;10416147;28;19952;-59
2022/09/27 21:39:32;;;;;;;;;;;;;;;;;;10413705;28;20335;-59
2022/09/27 21:44:34;;;;;;;;;;;;;;;;;;10415188;28;19975;-59
2022/09/27 21:49:36;;;;;;;;;;;;;;;;;;10421111;28;19925;-59
2022/09/27 21:54:38;;;;;;;;;;;;;;;;;;10424469;28;19925;-59
2022/09/27 21:59:41;;;;;;;;;;;;;;;;;;10421702;28;20019;-59
2022/09/27 22:04:43;;;;;;;;;;;;;;;;;;10424090;28;19980;-59
2022/09/27 22:09:45;;;;;;;;;;;;;;;;;;10423849;28;19933;-59
2022/09/27 22:14:47;;;;;;;;;;;;;;;;;;10421154;28;20343;-59
2022/09/27 22:19:49;;;;;;;;;;;;;;;;;;10421656;28;19976;-60
2022/09/27 22:24:51;;;;;;;;;;;;;;;;;;10422455;28;20357;-59
2022/09/27 22:29:53;;;;;;;;;;;;;;;;;;10423053;28;19925;-59
2022/09/27 22:34:55;;;;;;;;;;;;;;;;;;10420302;28;19952;-59
2022/09/27 22:39:57;;;;;;;;;;;;;;;;;;10420948;28;19925;-59
2022/09/27 22:44:59;;;;;;;;;;;;;;;;;;10420916;28;20376;-60
2022/09/27 22:50:01;;;;;;;;;;;;;;;;;;10420920;28;19925;-60
2022/09/27 22:55:03;;;;;;;;;;;;;;;;;;10420624;28;20369;-59
2022/09/27 23:00:06;;;;;;;;;;;;;;;;;;10420176;28;19929;-59
2022/09/27 23:05:08;;;;;;;;;;;;;;;;;;10421210;28;20327;-60
2022/09/27 23:10:11;;;;;;;;;;;;;;;;;;10419141;28;19925;-59
2022/09/27 23:15:13;;;;;;;;;;;;;;;;;;10420551;28;20376;-59
2022/09/27 23:20:16;;;;;;;;;;;;;;;;;;10418497;28;19929;-59
2022/09/27 23:25:18;;;;;;;;;;;;;;;;;;10420318;28;20281;-60
2022/09/27 23:30:20;;;;;;;;;;;;;;;;;;10420763;28;19925;-60
2022/09/27 23:35:22;;;;;;;;;;;;;;;;;;10419705;28;19972;-60
2022/09/27 23:40:25;;;;;;;;;;;;;;;;;;10410872;28;19929;-59
2022/09/27 23:45:27;;;;;;;;;;;;;;;;;;10420251;28;19999;-60
2022/09/27 23:50:31;;;;;;;;;;;;;;;;;;10415718;28;20328;-61
2022/09/27 23:55:33;;;;;;;;;;;;;;;;;;10418081;28;19925;-60
